Time;durP1;ratioP1;P1;durP2;ratioP2;P2;SDS_P1;SDS_P2;PMS_P1;PMS_P2;Temp;Humidity;BMP_temperature;BMP_pressure;BME280_temperature;BME280_humidity;BME280_pressure;Samples;Min_cycle;Max_cycle;Signal;HPM_P1;HPM_P2
2023/09/21 00:01:18;;;;;;;3.28;2.67;;;18.20;99.90;;;;;;5003983;28;20030;-89
2023/09/21 00:03:44;;;;;;;6.75;2.83;;;18.20;99.90;;;;;;5024014;28;20034;-90
2023/09/21 00:06:13;;;;;;;3.90;2.75;;;18.20;99.90;;;;;;5016042;28;20042;-87
2023/09/21 00:08:38;;;;;;;6.05;2.80;;;18.20;99.90;;;;;;5025493;28;20404;-91
2023/09/21 00:11:04;;;;;;;4.30;2.97;;;18.20;99.90;;;;;;5021740;28;20136;-87
2023/09/21 00:13:31;;;;;;;3.25;2.58;;;18.10;99.90;;;;;;5019955;28;20037;-90
2023/09/21 00:15:59;;;;;;;4.57;2.72;;;18.10;99.90;;;;;;4986293;28;20107;-89
2023/09/21 00:18:26;;;;;;;4.22;2.70;;;18.10;99.90;;;;;;5003392;28;20046;-92
2023/09/21 00:20:54;;;;;;;3.22;2.70;;;18.10;99.90;;;;;;5019118;28;20033;-89
2023/09/21 00:23:24;;;;;;;4.25;2.72;;;18.00;99.90;;;;;;5018892;28;20045;-90
2023/09/21 00:25:50;;;;;;;3.42;2.72;;;18.00;99.90;;;;;;5008561;28;20041;-91
2023/09/21 00:28:19;;;;;;;5.68;2.80;;;18.00;99.90;;;;;;5021609;28;20084;-90
2023/09/21 00:30:45;;;;;;;5.90;3.15;;;18.00;99.90;;;;;;5007525;28;20037;-80
2023/09/21 00:33:11;;;;;;;5.00;3.00;;;18.00;99.90;;;;;;4988005;28;20045;-79
2023/09/21 00:35:39;;;;;;;6.50;3.00;;;18.10;99.90;;;;;;5007453;28;20045;-79
2023/09/21 00:38:14;;;;;;;4.70;2.70;;;18.10;99.90;;;;;;5021902;28;20061;-81
2023/09/21 00:40:40;;;;;;;5.13;2.63;;;18.10;99.90;;;;;;5003629;28;20042;-89
2023/09/21 00:43:09;;;;;;;4.95;2.70;;;18.10;99.90;;;;;;5013362;28;20069;-90
2023/09/21 00:45:36;;;;;;;5.18;2.90;;;18.10;99.90;;;;;;4993232;28;20095;-79
2023/09/21 00:48:13;;;;;;;4.70;2.78;;;18.10;99.90;;;;;;5005892;28;20037;-79
2023/09/21 00:50:44;;;;;;;5.55;2.75;;;18.10;99.90;;;;;;5020383;28;20045;-78
2023/09/21 00:53:14;;;;;;;6.07;3.00;;;18.10;99.90;;;;;;5021823;28;20045;-81
2023/09/21 00:55:42;;;;;;;4.63;2.60;;;18.20;99.90;;;;;;5007973;28;20647;-79
2023/09/21 00:58:08;;;;;;;4.38;2.80;;;18.20;99.90;;;;;;5021647;28;20096;-79
2023/09/21 01:00:34;;;;;;;4.50;2.92;;;18.10;99.90;;;;;;5004104;28;20653;-79
2023/09/21 01:03:13;;;;;;;6.50;3.05;;;18.10;99.90;;;;;;5022504;28;20076;-79
2023/09/21 01:05:41;;;;;;;8.00;2.92;;;18.10;99.90;;;;;;5005830;28;20504;-79
2023/09/21 01:08:13;;;;;;;4.85;2.85;;;18.10;99.90;;;;;;5021797;28;20363;-78
2023/09/21 01:10:44;;;;;;;3.33;2.60;;;18.10;99.90;;;;;;5007835;28;20460;-92
2023/09/21 01:13:11;;;;;;;4.33;2.70;;;18.10;99.90;;;;;;4989156;28;20046;-89
2023/09/21 01:15:37;;;;;;;3.92;2.80;;;18.10;99.90;;;;;;5004942;28;20496;-88
2023/09/21 01:18:04;;;;;;;6.13;2.83;;;18.10;99.90;;;;;;5025405;28;20413;-90
2023/09/21 01:20:32;;;;;;;3.83;2.55;;;18.10;99.90;;;;;;4990787;28;20034;-89
2023/09/21 01:23:19;;;;;;;6.07;3.20;;;18.10;99.90;;;;;;5005464;28;20037;-90
2023/09/21 01:25:51;;;;;;;3.25;2.33;;;18.10;99.90;;;;;;5020409;28;20038;-90
2023/09/21 01:28:22;;;;;;;3.67;2.45;;;18.10;99.90;;;;;;5007258;28;20056;-92
2023/09/21 01:30:49;;;;;;;4.05;2.40;;;18.10;99.90;;;;;;5007340;28;20045;-79
2023/09/21 01:33:15;;;;;;;3.80;2.67;;;18.10;99.90;;;;;;5023994;28;20033;-88
2023/09/21 01:35:45;;;;;;;4.60;2.60;;;18.10;99.90;;;;;;5034247;28;20079;-91
2023/09/21 01:38:12;;;;;;;4.90;2.78;;;18.10;99.90;;;;;;5023901;28;20076;-85
2023/09/21 01:40:39;;;;;;;5.00;2.45;;;18.10;99.90;;;;;;5026797;28;20055;-90
2023/09/21 01:43:07;;;;;;;4.50;2.92;;;18.10;99.90;;;;;;5028429;28;20038;-89
2023/09/21 01:45:39;;;;;;;3.58;2.47;;;18.10;99.90;;;;;;5006224;28;20042;-89
2023/09/21 01:48:09;;;;;;;4.97;2.83;;;18.10;99.90;;;;;;5023475;28;20050;-88
2023/09/21 01:50:51;;;;;;;4.78;2.95;;;18.10;99.90;;;;;;5023582;28;20095;-91
2023/09/21 01:53:21;;;;;;;3.40;2.50;;;18.10;99.90;;;;;;4995123;28;20041;-89
2023/09/21 01:55:49;;;;;;;3.20;2.40;;;18.10;99.90;;;;;;5025819;28;20474;-91
2023/09/21 01:58:19;;;;;;;3.88;2.75;;;18.10;99.90;;;;;;5003945;28;20394;-86
2023/09/21 02:00:49;;;;;;;4.53;2.65;;;18.10;99.90;;;;;;5007021;28;20045;-88
2023/09/21 02:03:20;;;;;;;4.43;2.60;;;18.20;99.90;;;;;;5007776;28;20107;-89
2023/09/21 02:05:46;;;;;;;3.63;2.60;;;18.20;99.90;;;;;;5005010;28;20116;-87
2023/09/21 02:08:13;;;;;;;4.55;2.78;;;18.20;99.90;;;;;;5004842;28;20060;-88
2023/09/21 02:10:43;;;;;;;7.65;2.92;;;18.20;99.90;;;;;;5010778;28;20045;-90
2023/09/21 02:13:09;;;;;;;3.97;2.42;;;18.20;99.90;;;;;;5008225;28;20048;-89
2023/09/21 02:15:40;;;;;;;3.65;2.50;;;18.20;99.90;;;;;;5008013;28;20398;-88
2023/09/21 02:18:09;;;;;;;4.40;2.38;;;18.20;99.90;;;;;;5023735;28;20045;-90
2023/09/21 02:20:44;;;;;;;4.38;2.72;;;18.10;99.90;;;;;;5023406;28;20033;-90
2023/09/21 02:23:11;;;;;;;4.47;2.25;;;18.10;99.90;;;;;;5009312;28;20384;-91
2023/09/21 02:25:40;;;;;;;3.50;2.50;;;18.10;99.90;;;;;;4986628;28;20042;-89
2023/09/21 02:28:12;;;;;;;4.63;2.33;;;18.00;99.90;;;;;;4994052;28;20045;-90
2023/09/21 02:30:40;;;;;;;4.15;2.50;;;18.00;99.90;;;;;;5022276;28;20048;-91
2023/09/21 02:33:07;;;;;;;3.53;2.55;;;17.90;99.90;;;;;;5005438;28;20073;-89
2023/09/21 02:35:34;;;;;;;4.57;2.50;;;17.90;99.90;;;;;;5012431;28;20077;-89
2023/09/21 02:38:00;;;;;;;5.43;2.72;;;17.90;99.90;;;;;;5008377;28;20042;-90
2023/09/21 02:40:26;;;;;;;3.60;2.42;;;17.80;99.90;;;;;;5021922;28;20058;-90
2023/09/21 02:42:53;;;;;;;3.10;2.67;;;17.80;99.90;;;;;;5023716;28;20150;-91
2023/09/21 02:45:24;;;;;;;4.45;2.47;;;17.70;99.90;;;;;;4991662;28;20037;-91
2023/09/21 02:47:51;;;;;;;3.50;2.53;;;17.70;99.90;;;;;;5006316;28;20041;-90
2023/09/21 02:50:27;;;;;;;4.93;2.45;;;17.70;99.90;;;;;;5005385;28;20050;-91
2023/09/21 02:52:57;;;;;;;3.25;2.75;;;17.70;99.90;;;;;;4988023;28;20045;-79
2023/09/21 02:55:27;;;;;;;3.45;2.40;;;17.70;99.90;;;;;;5019724;28;20083;-78
2023/09/21 02:58:06;;;;;;;3.13;2.60;;;17.60;99.90;;;;;;5017839;28;20046;-79
2023/09/21 03:00:39;;;;;;;5.45;2.47;;;17.60;99.90;;;;;;5003081;28;20076;-79
2023/09/21 03:03:06;;;;;;;2.83;2.40;;;17.60;99.90;;;;;;5002944;28;20057;-79
2023/09/21 03:05:33;;;;;;;3.88;2.33;;;17.60;99.90;;;;;;5004781;28;20583;-90
2023/09/21 03:08:04;;;;;;;3.72;2.50;;;17.60;99.90;;;;;;5002954;28;20052;-89
2023/09/21 03:10:30;;;;;;;7.93;2.58;;;17.60;99.90;;;;;;5006380;28;20084;-91
2023/09/21 03:12:55;;;;;;;4.05;2.35;;;17.60;99.90;;;;;;4990095;28;20532;-89
2023/09/21 03:15:22;;;;;;;3.40;2.35;;;17.60;99.90;;;;;;4987989;28;20037;-90
2023/09/21 03:17:52;;;;;;;5.00;2.35;;;17.60;99.90;;;;;;5003876;28;20038;-80
2023/09/21 03:20:31;;;;;;;3.47;2.60;;;17.60;99.90;;;;;;5001041;28;20065;-78
2023/09/21 03:22:58;;;;;;;2.63;2.42;;;17.60;99.90;;;;;;4987993;28;20037;-78
2023/09/21 03:25:29;;;;;;;4.40;2.30;;;17.60;99.90;;;;;;5020268;28;20051;-79
2023/09/21 03:27:56;;;;;;;3.55;2.05;;;17.60;99.90;;;;;;5017981;28;20049;-78
2023/09/21 03:30:26;;;;;;;3.28;2.28;;;17.70;99.90;;;;;;5006163;28;20489;-79
2023/09/21 03:32:52;;;;;;;3.65;2.33;;;17.80;99.90;;;;;;4984615;28;20069;-78
2023/09/21 03:35:20;;;;;;;3.70;2.22;;;17.80;99.90;;;;;;5017517;28;20045;-78
2023/09/21 03:37:50;;;;;;;2.35;2.10;;;17.80;99.90;;;;;;5018516;28;20037;-79
2023/09/21 03:40:17;;;;;;;2.40;2.13;;;17.80;99.90;;;;;;5001966;28;20049;-90
2023/09/21 03:42:43;;;;;;;3.30;2.15;;;17.80;99.90;;;;;;5022383;28;20900;-79
2023/09/21 03:45:11;;;;;;;4.47;2.38;;;17.80;99.90;;;;;;5020687;28;20049;-78
2023/09/21 03:47:38;;;;;;;4.93;2.50;;;17.80;99.90;;;;;;5002361;28;20084;-80
2023/09/21 03:50:06;;;;;;;2.75;2.40;;;17.70;99.90;;;;;;5002023;28;20046;-79
2023/09/21 03:52:32;;;;;;;5.70;2.25;;;17.60;99.90;;;;;;5002615;28;20048;-79
2023/09/21 03:55:00;;;;;;;2.75;2.55;;;17.60;99.90;;;;;;5001384;28;20445;-80
2023/09/21 03:57:27;;;;;;;3.55;2.50;;;17.60;99.90;;;;;;5003028;28;20038;-78
2023/09/21 03:59:55;;;;;;;3.30;2.53;;;17.50;99.90;;;;;;5020829;28;20041;-79
2023/09/21 04:02:22;;;;;;;4.70;2.75;;;17.50;99.90;;;;;;5003061;28;20048;-89
2023/09/21 04:04:51;;;;;;;3.95;2.67;;;17.40;99.90;;;;;;5003064;28;20041;-87
2023/09/21 04:07:18;;;;;;;4.45;2.60;;;17.40;99.90;;;;;;5021065;28;20038;-90
2023/09/21 04:09:46;;;;;;;3.25;2.45;;;17.40;99.90;;;;;;5001739;28;20041;-88
2023/09/21 04:12:13;;;;;;;3.28;2.53;;;17.30;99.90;;;;;;5004717;28;20116;-91
2023/09/21 04:14:44;;;;;;;4.75;2.80;;;17.30;99.90;;;;;;5003148;28;20480;-78
2023/09/21 04:17:09;;;;;;;3.83;2.33;;;17.20;99.90;;;;;;5016299;28;20103;-78
2023/09/21 04:19:35;;;;;;;3.92;2.60;;;17.30;99.90;;;;;;4985569;28;20139;-79
2023/09/21 04:22:00;;;;;;;3.55;2.90;;;17.30;99.90;;;;;;4987132;28;20041;-79
2023/09/21 04:24:26;;;;;;;3.05;2.55;;;17.20;99.90;;;;;;4988577;28;20473;-90
2023/09/21 04:26:52;;;;;;;5.07;2.63;;;17.20;99.90;;;;;;5019069;28;20521;-89
2023/09/21 04:29:17;;;;;;;3.70;2.60;;;17.20;99.90;;;;;;4998607;28;20053;-90
2023/09/21 04:31:43;;;;;;;3.47;2.63;;;17.20;99.90;;;;;;5004020;28;20047;-89
2023/09/21 04:34:09;;;;;;;3.72;2.60;;;17.20;99.90;;;;;;5024769;28;20084;-91
2023/09/21 04:36:34;;;;;;;2.75;2.20;;;17.20;99.90;;;;;;5019681;28;20536;-88
2023/09/21 04:39:00;;;;;;;4.32;2.78;;;17.20;99.90;;;;;;5018973;28;20033;-90
2023/09/21 04:41:27;;;;;;;4.35;2.70;;;17.20;99.90;;;;;;5007647;28;20060;-89
2023/09/21 04:43:53;;;;;;;3.97;2.67;;;17.20;99.90;;;;;;5021497;28;20048;-89
2023/09/21 04:46:20;;;;;;;3.55;2.15;;;17.20;99.90;;;;;;5026779;28;20051;-89
2023/09/21 04:48:46;;;;;;;3.65;2.42;;;17.20;99.90;;;;;;5023505;28;20034;-88
2023/09/21 04:51:14;;;;;;;2.70;2.50;;;17.20;99.90;;;;;;5002402;28;20041;-79
2023/09/21 04:53:39;;;;;;;3.60;2.42;;;17.30;99.90;;;;;;5018509;28;20567;-79
2023/09/21 04:56:05;;;;;;;5.03;2.50;;;17.20;99.90;;;;;;5001838;28;20041;-78
2023/09/21 04:58:31;;;;;;;5.40;2.50;;;17.30;99.90;;;;;;5017467;28;20041;-79
2023/09/21 05:00:58;;;;;;;3.80;2.60;;;17.30;99.90;;;;;;4998953;28;20112;-78
2023/09/21 05:03:24;;;;;;;3.00;2.50;;;17.40;99.90;;;;;;5019444;28;20059;-78
2023/09/21 05:05:52;;;;;;;3.10;2.47;;;17.40;99.90;;;;;;5003356;28;20077;-79
2023/09/21 05:08:18;;;;;;;5.40;2.60;;;17.50;99.90;;;;;;5000646;28;20060;-79
2023/09/21 05:10:44;;;;;;;3.63;2.65;;;17.50;99.90;;;;;;5002631;28;20042;-78
2023/09/21 05:13:10;;;;;;;3.05;2.40;;;17.50;99.90;;;;;;5000464;28;20045;-78
2023/09/21 05:15:36;;;;;;;4.97;2.40;;;17.60;99.90;;;;;;5005915;28;20053;-78
2023/09/21 05:18:02;;;;;;;2.47;2.17;;;17.70;99.90;;;;;;5007214;28;20046;-79
2023/09/21 05:20:28;;;;;;;3.03;2.22;;;17.70;99.90;;;;;;5002785;28;20034;-78
2023/09/21 05:22:53;;;;;;;3.63;2.53;;;17.70;99.90;;;;;;4991438;28;20041;-79
2023/09/21 05:25:19;;;;;;;4.03;2.20;;;17.80;99.90;;;;;;4986982;28;20039;-78
2023/09/21 05:27:45;;;;;;;6.47;2.30;;;17.90;99.90;;;;;;4989898;28;20045;-78
2023/09/21 05:30:10;;;;;;;3.53;2.50;;;17.90;99.90;;;;;;4985972;28;20092;-78
2023/09/21 05:32:37;;;;;;;3.13;2.50;;;17.90;99.90;;;;;;4989411;28;20041;-79
2023/09/21 05:35:07;;;;;;;3.55;2.17;;;18.00;99.90;;;;;;5004809;28;20049;-78
2023/09/21 05:37:35;;;;;;;4.18;2.60;;;18.10;99.90;;;;;;4986704;28;20069;-78
2023/09/21 05:40:05;;;;;;;4.45;2.40;;;18.10;99.90;;;;;;5024608;28;20041;-77
2023/09/21 05:42:31;;;;;;;3.20;2.00;;;18.20;99.90;;;;;;5003483;28;20041;-77
2023/09/21 05:44:56;;;;;;;3.33;2.53;;;18.20;99.90;;;;;;5022406;28;20041;-78
2023/09/21 05:47:22;;;;;;;2.70;2.20;;;18.30;99.90;;;;;;5003665;28;20042;-79
2023/09/21 05:49:48;;;;;;;2.97;2.00;;;18.30;99.90;;;;;;5004527;28;20049;-77
2023/09/21 05:52:13;;;;;;;3.17;2.70;;;18.40;99.90;;;;;;4994694;28;20132;-78
2023/09/21 05:54:42;;;;;;;4.50;2.50;;;18.50;99.90;;;;;;5012769;28;20060;-79
2023/09/21 05:57:08;;;;;;;4.22;2.45;;;18.50;99.90;;;;;;5013346;28;20083;-78
2023/09/21 05:59:34;;;;;;;2.65;1.98;;;18.60;99.90;;;;;;5002299;28;20465;-79
2023/09/21 06:01:59;;;;;;;4.95;2.40;;;18.60;99.90;;;;;;5009654;28;20034;-79
2023/09/21 06:04:26;;;;;;;3.95;2.53;;;18.60;99.90;;;;;;4995877;28;20044;-78
2023/09/21 06:06:55;;;;;;;5.07;2.75;;;18.70;99.90;;;;;;5009015;28;20045;-78
2023/09/21 06:09:22;;;;;;;4.57;2.40;;;18.70;99.90;;;;;;5013739;28;20030;-79
2023/09/21 06:11:48;;;;;;;3.15;2.25;;;18.70;99.90;;;;;;5010547;28;20343;-79
2023/09/21 06:14:18;;;;;;;3.67;2.35;;;18.70;99.90;;;;;;5030081;28;20043;-80
2023/09/21 06:16:45;;;;;;;3.80;2.20;;;18.70;99.90;;;;;;5027488;28;20063;-78
2023/09/21 06:19:11;;;;;;;3.00;2.08;;;18.70;99.90;;;;;;5023950;28;20042;-79
2023/09/21 06:21:39;;;;;;;4.60;2.50;;;18.70;99.90;;;;;;5012626;28;20045;-79
2023/09/21 06:24:09;;;;;;;4.10;2.22;;;18.80;99.90;;;;;;4996470;28;20042;-79
2023/09/21 06:26:35;;;;;;;3.33;2.28;;;18.80;99.90;;;;;;5027309;28;20051;-79
2023/09/21 06:29:01;;;;;;;2.72;2.40;;;18.80;99.90;;;;;;5029786;28;20077;-79
2023/09/21 06:31:28;;;;;;;3.92;2.40;;;18.90;99.90;;;;;;4994573;28;20127;-79
2023/09/21 06:33:58;;;;;;;2.33;2.00;;;18.90;99.90;;;;;;5029236;28;20052;-79
2023/09/21 06:36:30;;;;;;;3.20;2.25;;;18.90;99.90;;;;;;5013256;28;20037;-79
2023/09/21 06:38:59;;;;;;;3.35;2.42;;;18.90;99.90;;;;;;5010725;28;20041;-79
2023/09/21 06:41:25;;;;;;;2.97;2.30;;;19.00;99.90;;;;;;5026900;28;20053;-79
2023/09/21 06:43:51;;;;;;;3.78;2.28;;;19.00;99.90;;;;;;4992834;28;20038;-79
2023/09/21 06:46:18;;;;;;;4.43;2.67;;;19.00;99.90;;;;;;5012810;28;20033;-79
2023/09/21 06:48:44;;;;;;;4.43;2.50;;;19.00;99.90;;;;;;5013135;28;20060;-79
2023/09/21 06:51:09;;;;;;;3.58;2.33;;;19.00;99.90;;;;;;4996438;28;20049;-80
2023/09/21 06:53:36;;;;;;;6.40;2.55;;;18.90;99.90;;;;;;5013090;28;20037;-79
2023/09/21 06:56:02;;;;;;;4.07;2.65;;;18.90;99.90;;;;;;5027965;28;20053;-79
2023/09/21 06:58:30;;;;;;;3.55;2.67;;;18.90;99.90;;;;;;5012874;28;20037;-79
2023/09/21 07:00:58;;;;;;;4.72;2.50;;;18.90;99.90;;;;;;4978520;28;20040;-79
2023/09/21 07:03:24;;;;;;;5.10;2.35;;;19.00;99.90;;;;;;4996454;28;20285;-80
2023/09/21 07:05:50;;;;;;;5.75;2.45;;;19.00;99.90;;;;;;5029200;28;20087;-79
2023/09/21 07:08:17;;;;;;;4.47;2.28;;;19.00;99.90;;;;;;5026511;28;20436;-79
2023/09/21 07:10:43;;;;;;;4.15;2.60;;;19.00;99.90;;;;;;5028283;28;20445;-79
2023/09/21 07:13:13;;;;;;;2.97;2.28;;;19.10;99.90;;;;;;5012778;28;20045;-80
2023/09/21 07:15:39;;;;;;;3.47;2.50;;;19.10;99.90;;;;;;5010728;28;20125;-80
2023/09/21 07:18:06;;;;;;;3.13;2.20;;;19.10;99.90;;;;;;4994014;28;20128;-78
2023/09/21 07:20:32;;;;;;;4.10;2.35;;;19.20;99.90;;;;;;5028477;28;20247;-79
2023/09/21 07:22:58;;;;;;;3.22;2.40;;;19.20;99.90;;;;;;5028963;28;20116;-79
2023/09/21 07:25:25;;;;;;;4.35;2.10;;;19.20;99.90;;;;;;5009022;28;20041;-80
2023/09/21 07:27:54;;;;;;;4.90;2.50;;;19.20;99.90;;;;;;5011557;28;20489;-79
2023/09/21 07:30:20;;;;;;;4.10;2.55;;;19.30;99.90;;;;;;5010020;28;20041;-80
2023/09/21 07:32:46;;;;;;;4.38;2.60;;;19.30;99.90;;;;;;5028225;28;20080;-78
2023/09/21 07:35:14;;;;;;;5.53;2.70;;;19.30;99.90;;;;;;5028372;28;20077;-79
2023/09/21 07:37:46;;;;;;;3.75;2.20;;;19.30;99.90;;;;;;5011524;28;20048;-79
2023/09/21 07:40:16;;;;;;;4.47;2.60;;;19.30;99.90;;;;;;4997296;28;20055;-79
2023/09/21 07:42:48;;;;;;;3.08;2.50;;;19.30;99.90;;;;;;4992553;28;20037;-79
2023/09/21 07:45:15;;;;;;;;;;;19.40;99.90;;;;;;5012238;28;20034;-78
2023/09/21 07:47:41;;;;;;;4.43;2.55;;;19.40;99.90;;;;;;5028290;28;19921;-79
2023/09/21 07:50:08;;;;;;;3.45;2.47;;;19.50;99.90;;;;;;5011419;28;20041;-79
2023/09/21 07:52:35;;;;;;;3.55;2.50;;;19.60;99.90;;;;;;5027060;28;20055;-79
2023/09/21 07:55:02;;;;;;;2.58;2.38;;;19.60;99.90;;;;;;5011430;28;20579;-79
2023/09/21 07:57:37;;;;;;;3.30;2.45;;;19.60;99.90;;;;;;5028059;28;20107;-79
2023/09/21 08:00:05;;;;;;;3.72;2.70;;;19.70;99.90;;;;;;4993613;28;20448;-80
2023/09/21 08:02:31;;;;;;;3.78;2.40;;;19.70;99.90;;;;;;4994390;28;20037;-79
2023/09/21 08:04:57;;;;;;;5.13;2.75;;;19.80;99.90;;;;;;5027047;28;20044;-79
2023/09/21 08:07:25;;;;;;;5.82;2.55;;;19.80;99.90;;;;;;5010598;28;20041;-79
2023/09/21 08:09:55;;;;;;;3.65;2.60;;;19.80;99.90;;;;;;4992888;28;20450;-79
2023/09/21 08:12:24;;;;;;;6.40;2.70;;;19.80;99.90;;;;;;5025746;28;20041;-79
2023/09/21 08:14:51;;;;;;;4.90;2.67;;;19.70;99.90;;;;;;5025121;28;20128;-79
2023/09/21 08:17:17;;;;;;;4.88;2.80;;;19.70;99.90;;;;;;5011576;28;20034;-78
2023/09/21 08:19:43;;;;;;;3.63;2.55;;;19.60;99.90;;;;;;5009786;28;20519;-78
2023/09/21 08:22:09;;;;;;;3.80;2.50;;;19.60;99.90;;;;;;4994596;28;20045;-79
2023/09/21 08:24:36;;;;;;;4.32;2.60;;;19.60;99.90;;;;;;5023837;28;20073;-79
2023/09/21 08:27:03;;;;;;;4.25;2.72;;;19.60;99.90;;;;;;5022778;28;20053;-79
2023/09/21 08:29:29;;;;;;;3.90;2.90;;;19.50;99.90;;;;;;5010970;28;20046;-79
2023/09/21 08:31:55;;;;;;;4.20;3.00;;;19.50;99.90;;;;;;5027426;28;20060;-81
2023/09/21 08:34:21;;;;;;;6.18;3.10;;;19.30;99.90;;;;;;5025345;28;20053;-78
2023/09/21 08:36:47;;;;;;;3.15;2.65;;;19.30;99.90;;;;;;5010397;28;20088;-81
2023/09/21 08:39:12;;;;;;;5.53;3.10;;;19.20;99.90;;;;;;5024194;28;20037;-78
2023/09/21 08:41:46;;;;;;;4.28;3.00;;;19.10;99.90;;;;;;5011203;28;20042;-79
2023/09/21 08:44:12;;;;;;;4.20;2.90;;;19.10;99.90;;;;;;5011204;28;20054;-78
2023/09/21 08:46:38;;;;;;;5.10;3.00;;;19.00;99.90;;;;;;5025453;28;20040;-77
2023/09/21 08:49:06;;;;;;;5.75;3.10;;;19.00;99.90;;;;;;5029136;28;20053;-78
2023/09/21 08:51:37;;;;;;;4.53;3.40;;;18.90;99.90;;;;;;5026041;28;20052;-78
2023/09/21 08:54:06;;;;;;;4.43;3.13;;;18.90;99.90;;;;;;5030529;28;20053;-79
2023/09/21 08:56:33;;;;;;;4.40;2.83;;;18.90;99.90;;;;;;5015084;28;20045;-78
2023/09/21 08:59:00;;;;;;;6.32;3.30;;;18.90;99.90;;;;;;5028018;28;20546;-78
2023/09/21 09:01:27;;;;;;;4.85;3.50;;;18.90;99.90;;;;;;4998704;28;20124;-78
2023/09/21 09:03:58;;;;;;;6.00;3.45;;;18.90;99.90;;;;;;5014876;28;20088;-78
2023/09/21 09:06:24;;;;;;;5.20;3.05;;;18.90;99.90;;;;;;5007561;28;20735;-79
2023/09/21 09:08:51;;;;;;;6.28;3.30;;;18.80;99.90;;;;;;5027515;28;20041;-78
2023/09/21 09:11:35;;;;;;;5.75;3.20;;;18.70;99.90;;;;;;5004603;28;20501;-78
2023/09/21 09:14:02;;;;;;;3.67;3.13;;;18.70;99.90;;;;;;5012186;28;20038;-79
2023/09/21 09:16:28;;;;;;;5.32;3.47;;;18.60;99.90;;;;;;5031499;28;20160;-78
2023/09/21 09:19:00;;;;;;;6.13;3.47;;;18.60;99.90;;;;;;5013513;28;20072;-78
2023/09/21 09:21:26;;;;;;;4.93;3.50;;;18.60;99.90;;;;;;5031084;28;20044;-78
2023/09/21 09:23:52;;;;;;;3.85;3.35;;;18.60;99.90;;;;;;5030449;28;20029;-78
2023/09/21 09:26:19;;;;;;;4.25;3.80;;;18.60;99.90;;;;;;4997073;28;20496;-78
2023/09/21 09:28:45;;;;;;;6.22;3.65;;;18.50;99.90;;;;;;4996592;28;20045;-78
2023/09/21 09:31:17;;;;;;;6.28;4.15;;;18.50;99.90;;;;;;4995162;28;20045;-78
2023/09/21 09:33:47;;;;;;;7.10;4.00;;;18.50;99.90;;;;;;5027288;28;20405;-78
2023/09/21 09:36:13;;;;;;;4.35;3.75;;;18.40;99.90;;;;;;5013805;28;20576;-78
2023/09/21 09:38:41;;;;;;;5.15;3.88;;;18.40;99.90;;;;;;5026725;28;20060;-79
2023/09/21 09:41:11;;;;;;;5.25;4.00;;;18.30;99.90;;;;;;5026346;28;20081;-78
2023/09/21 09:43:39;;;;;;;4.63;3.90;;;18.30;99.90;;;;;;5013965;28;20040;-78
2023/09/21 09:46:08;;;;;;;5.50;4.15;;;18.20;99.90;;;;;;5029668;28;20041;-78
2023/09/21 09:48:37;;;;;;;6.63;4.35;;;18.20;99.90;;;;;;5012699;28;20046;-78
2023/09/21 09:51:06;;;;;;;4.65;4.20;;;18.20;99.90;;;;;;5029777;28;20045;-78
2023/09/21 09:53:34;;;;;;;6.05;4.05;;;18.10;99.90;;;;;;4995419;28;20040;-78
2023/09/21 09:56:08;;;;;;;5.68;3.88;;;18.10;99.90;;;;;;5029856;28;20041;-77
2023/09/21 09:58:42;;;;;;;4.40;3.70;;;18.10;99.90;;;;;;5029141;28;20086;-78
2023/09/21 10:01:12;;;;;;;5.68;4.25;;;18.00;99.90;;;;;;5012290;28;20053;-78
2023/09/21 10:03:40;;;;;;;6.95;4.20;;;18.00;99.90;;;;;;5029540;28;20088;-78
2023/09/21 10:06:08;;;;;;;4.65;4.00;;;18.00;99.90;;;;;;5029681;28;20075;-78
2023/09/21 10:08:39;;;;;;;5.38;4.20;;;18.00;99.90;;;;;;5013160;28;20049;-77
2023/09/21 10:11:09;;;;;;;7.32;4.32;;;17.90;99.90;;;;;;5030210;28;20401;-77
2023/09/21 10:13:47;;;;;;;5.00;4.47;;;17.90;99.90;;;;;;5023216;28;20037;-78
2023/09/21 10:16:13;;;;;;;6.78;4.32;;;17.90;99.90;;;;;;5029635;28;20303;-78
2023/09/21 10:18:40;;;;;;;5.20;4.70;;;17.80;99.90;;;;;;5029616;28;20046;-79
2023/09/21 10:21:31;;;;;;;5.57;4.30;;;17.80;99.90;;;;;;5011627;28;20049;-77
2023/09/21 10:24:13;;;;;;;6.60;4.30;;;17.80;99.90;;;;;;5029380;28;20092;-78
2023/09/21 10:26:44;;;;;;;5.82;4.40;;;17.70;99.90;;;;;;4999965;28;20283;-77
2023/09/21 10:29:12;;;;;;;5.88;4.85;;;17.60;99.90;;;;;;5027184;28;20049;-78
2023/09/21 10:31:39;;;;;;;5.80;4.53;;;17.60;99.90;;;;;;5017800;28;20037;-78
2023/09/21 10:34:08;;;;;;;5.75;4.78;;;17.60;99.90;;;;;;5028735;28;20045;-78
2023/09/21 10:36:40;;;;;;;6.20;5.25;;;17.60;99.90;;;;;;5012474;28;20080;-78
2023/09/21 10:39:06;;;;;;;7.38;5.25;;;17.50;99.90;;;;;;5029387;28;20041;-78
2023/09/21 10:41:33;;;;;;;6.38;5.05;;;17.50;99.90;;;;;;5029432;28;20396;-78
2023/09/21 10:44:02;;;;;;;6.20;4.95;;;17.40;99.90;;;;;;5012518;28;20037;-78
2023/09/21 10:46:31;;;;;;;5.45;3.65;;;17.40;99.90;;;;;;5006934;28;20746;-78
2023/09/21 10:49:03;;;;;;;3.95;2.60;;;17.30;99.90;;;;;;5012736;28;20081;-78
2023/09/21 10:51:35;;;;;;;;;;;17.20;99.90;;;;;;5029874;28;20100;-79
2023/09/21 10:54:03;;;;;;;2.63;2.10;;;17.00;99.90;;;;;;5011820;28;20008;-79
2023/09/21 10:56:29;;;;;;;2.10;1.70;;;16.90;99.90;;;;;;4994834;28;20080;-79
2023/09/21 10:58:54;;;;;;;2.20;1.95;;;16.90;99.90;;;;;;5006636;28;20092;-79
2023/09/21 11:01:22;;;;;;;1.98;1.55;;;16.90;99.90;;;;;;5029083;28;20485;-79
2023/09/21 11:03:49;;;;;;;2.40;1.80;;;16.90;99.90;;;;;;5010542;28;20154;-80
2023/09/21 11:06:16;;;;;;;1.83;1.23;;;16.90;99.90;;;;;;4993369;28;20041;-80
2023/09/21 11:08:44;;;;;;;2.13;1.20;;;16.90;99.90;;;;;;5022263;28;20046;-79
2023/09/21 11:11:12;;;;;;;1.42;1.20;;;16.80;99.90;;;;;;5028143;28;20507;-80
2023/09/21 11:13:39;;;;;;;3.00;1.50;;;16.80;99.90;;;;;;4994132;28;20054;-80
2023/09/21 11:16:06;;;;;;;1.85;1.20;;;16.80;99.90;;;;;;5021645;28;20041;-80
2023/09/21 11:18:32;;;;;;;3.00;1.40;;;16.80;99.90;;;;;;5010779;28;20075;-79
2023/09/21 11:20:59;;;;;;;2.67;1.40;;;16.80;99.90;;;;;;5027753;28;20052;-79
2023/09/21 11:23:25;;;;;;;1.35;1.23;;;16.80;99.90;;;;;;5007771;28;20041;-79
2023/09/21 11:25:50;;;;;;;4.18;1.40;;;16.80;99.90;;;;;;4990285;28;20037;-79
2023/09/21 11:28:20;;;;;;;2.03;1.20;;;16.80;99.90;;;;;;5026836;28;20033;-80
2023/09/21 11:30:49;;;;;;;2.75;1.30;;;16.90;99.90;;;;;;5010352;28;20045;-79
2023/09/21 11:33:19;;;;;;;2.20;1.30;;;16.80;99.90;;;;;;5010050;28;20045;-80
2023/09/21 11:35:45;;;;;;;2.17;1.20;;;16.80;99.90;;;;;;5028266;28;20419;-80
2023/09/21 11:38:12;;;;;;;1.95;1.40;;;16.80;99.90;;;;;;5011391;28;20044;-80
2023/09/21 11:40:38;;;;;;;1.60;1.23;;;16.60;99.90;;;;;;5009158;28;20073;-80
2023/09/21 11:43:04;;;;;;;1.02;0.93;;;16.60;99.90;;;;;;5006285;28;20540;-80
2023/09/21 11:45:34;;;;;;;1.35;1.08;;;16.50;99.90;;;;;;5019029;28;20069;-79
2023/09/21 11:48:00;;;;;;;2.38;1.30;;;16.50;99.90;;;;;;5025049;28;20045;-80
2023/09/21 11:50:28;;;;;;;1.90;1.40;;;16.30;99.90;;;;;;5011188;28;20088;-80
2023/09/21 11:52:54;;;;;;;2.45;1.05;;;16.30;99.90;;;;;;5009783;28;20045;-79
2023/09/21 11:55:28;;;;;;;2.08;1.10;;;16.40;99.90;;;;;;4994639;28;20057;-80
2023/09/21 11:58:11;;;;;;;1.88;1.27;;;16.40;99.90;;;;;;5007654;28;20060;-79
2023/09/21 12:00:43;;;;;;;3.60;1.42;;;16.50;99.90;;;;;;5007281;28;20033;-79
2023/09/21 12:03:18;;;;;;;1.40;1.25;;;16.60;99.90;;;;;;5025480;28;20405;-79
2023/09/21 12:05:44;;;;;;;1.63;1.17;;;16.60;99.90;;;;;;5022068;28;20095;-80
2023/09/21 12:08:19;;;;;;;1.13;1.02;;;16.70;99.90;;;;;;5001663;28;20124;-80
2023/09/21 12:10:53;;;;;;;1.30;1.08;;;16.80;99.90;;;;;;5022463;28;20041;-79
2023/09/21 12:13:19;;;;;;;1.83;1.08;;;16.90;99.90;;;;;;4993601;28;20127;-79
2023/09/21 12:15:45;;;;;;;1.05;0.95;;;16.90;99.90;;;;;;5002366;28;20476;-80
2023/09/21 12:18:12;;;;;;;1.75;1.15;;;16.90;99.90;;;;;;5021611;28;20116;-80
2023/09/21 12:20:38;;;;;;;1.40;1.30;;;16.90;99.90;;;;;;5010285;28;20056;-79
2023/09/21 12:23:06;;;;;;;1.20;1.10;;;16.90;99.90;;;;;;5023451;28;20045;-80
2023/09/21 12:25:35;;;;;;;1.23;1.00;;;16.90;99.90;;;;;;5013887;28;20049;-79
2023/09/21 12:28:01;;;;;;;0.60;0.60;;;16.80;99.90;;;;;;4982897;28;20045;-80
2023/09/21 12:30:27;;;;;;;2.78;0.98;;;16.80;99.90;;;;;;5013753;28;20487;-80
2023/09/21 12:32:52;;;;;;;1.27;0.93;;;16.70;99.90;;;;;;5009627;28;20623;-80
2023/09/21 12:35:21;;;;;;;1.00;0.85;;;16.70;99.90;;;;;;4994293;28;20052;-80
2023/09/21 12:37:47;;;;;;;2.13;1.05;;;16.70;99.90;;;;;;5012439;28;20107;-80
2023/09/21 12:40:15;;;;;;;1.85;1.08;;;16.70;99.90;;;;;;5012685;28;20501;-80
2023/09/21 12:42:42;;;;;;;1.70;1.00;;;16.60;99.90;;;;;;5026204;28;20069;-80
2023/09/21 12:45:12;;;;;;;1.63;0.90;;;16.60;99.90;;;;;;5023196;28;20516;-80
2023/09/21 12:47:44;;;;;;;1.80;1.00;;;16.60;99.90;;;;;;4998526;28;20049;-80
2023/09/21 12:50:13;;;;;;;2.75;1.15;;;16.60;99.90;;;;;;5027897;28;20175;-80
2023/09/21 12:52:41;;;;;;;1.52;1.00;;;16.60;99.90;;;;;;5014539;28;20056;-81